sensor_id;sensor_type;location;lat;lon;timestamp;pressure;altitude;pressure_sealevel;temperature;humidity
64453;BME280;50813;52.654;6.766;2023-04-02T00:00:12;101250.0;;;5.73;100.0
64453;BME280;50813;52.654;6.766;2023-04-02T00:01:52;101259.0;;;5.65;100.0
64453;BME280;50813;52.654;6.766;2023-04-02T00:05:54;101258.0;;;5.61;100.0
64453;BME280;50813;52.654;6.766;2023-04-02T00:07:31;101262.0;;;5.61;100.0
64453;BME280;50813;52.654;6.766;2023-04-02T00:09:20;101264.0;;;5.61;100.0
64453;BME280;50813;52.654;6.766;2023-04-02T00:11:26;101264.0;;;5.56;100.0
64453;BME280;50813;52.654;6.766;2023-04-02T00:13:20;101267.0;;;5.64;100.0
64453;BME280;50813;52.654;6.766;2023-04-02T00:14:59;101274.0;;;5.58;100.0
64453;BME280;50813;52.654;6.766;2023-04-02T00:16:35;101275.0;;;5.62;100.0
64453;BME280;50813;52.654;6.766;2023-04-02T00:19:56;101280.0;;;5.61;100.0
64453;BME280;50813;52.654;6.766;2023-04-02T00:21:34;101286.0;;;5.62;100.0
64453;BME280;50813;52.654;6.766;2023-04-02T00:23:13;101292.0;;;5.53;100.0
64453;BME280;50813;52.654;6.766;2023-04-02T00:26:31;101292.0;;;5.49;100.0
64453;BME280;50813;52.654;6.766;2023-04-02T00:28:13;101303.0;;;5.41;100.0
64453;BME280;50813;52.654;6.766;2023-04-02T00:29:52;101305.0;;;5.43;100.0
64453;BME280;50813;52.654;6.766;2023-04-02T00:31:29;101306.0;;;5.45;100.0
64453;BME280;50813;52.654;6.766;2023-04-02T00:34:51;101312.0;;;5.42;100.0
64453;BME280;50813;52.654;6.766;2023-04-02T00:36:29;101315.0;;;5.39;100.0
64453;BME280;50813;52.654;6.766;2023-04-02T00:38:15;101322.0;;;5.23;100.0
64453;BME280;50813;52.654;6.766;2023-04-02T00:39:59;101323.0;;;5.33;100.0
64453;BME280;50813;52.654;6.766;2023-04-02T00:41:37;101334.0;;;5.22;100.0
64453;BME280;50813;52.654;6.766;2023-04-02T00:44:52;101332.0;;;5.23;100.0
64453;BME280;50813;52.654;6.766;2023-04-02T00:46:31;101337.0;;;5.25;100.0
64453;BME280;50813;52.654;6.766;2023-04-02T00:48:19;101336.0;;;5.31;100.0
64453;BME280;50813;52.654;6.766;2023-04-02T00:50:05;101346.0;;;5.28;100.0
64453;BME280;50813;52.654;6.766;2023-04-02T00:53:26;101342.0;;;5.18;100.0
64453;BME280;50813;52.654;6.766;2023-04-02T00:55:07;101345.0;;;5.14;100.0
64453;BME280;50813;52.654;6.766;2023-04-02T00:56:52;101343.0;;;5.08;100.0
64453;BME280;50813;52.654;6.766;2023-04-02T00:58:31;101347.0;;;4.89;99.24
64453;BME280;50813;52.654;6.766;2023-04-02T01:03:57;101355.0;;;4.82;98.08
64453;BME280;50813;52.654;6.766;2023-04-02T01:07:13;101361.0;;;4.58;95.15
64453;BME280;50813;52.654;6.766;2023-04-02T01:09:01;101366.0;;;4.45;95.34
64453;BME280;50813;52.654;6.766;2023-04-02T01:12:45;101374.0;;;4.53;95.26
64453;BME280;50813;52.654;6.766;2023-04-02T01:14:39;101378.0;;;4.51;95.37
64453;BME280;50813;52.654;6.766;2023-04-02T01:16:29;101380.0;;;4.55;95.72
64453;BME280;50813;52.654;6.766;2023-04-02T01:18:19;101376.0;;;4.41;93.82
64453;BME280;50813;52.654;6.766;2023-04-02T01:20:33;101380.0;;;4.33;93.99
64453;BME280;50813;52.654;6.766;2023-04-02T01:23:34;101389.0;;;4.37;93.68
64453;BME280;50813;52.654;6.766;2023-04-02T01:27:00;101392.0;;;4.41;92.86
64453;BME280;50813;52.654;6.766;2023-04-02T01:28:49;101391.0;;;4.37;92.5
64453;BME280;50813;52.654;6.766;2023-04-02T01:30:30;101407.0;;;4.28;93.34
64453;BME280;50813;52.654;6.766;2023-04-02T01:32:10;101401.0;;;4.28;93.11
64453;BME280;50813;52.654;6.766;2023-04-02T01:35:26;101405.0;;;4.21;92.26
64453;BME280;50813;52.654;6.766;2023-04-02T01:37:15;101408.0;;;4.2;91.8
64453;BME280;50813;52.654;6.766;2023-04-02T01:39:05;101418.0;;;4.16;92.2
64453;BME280;50813;52.654;6.766;2023-04-02T01:40:51;101419.0;;;4.26;91.19
64453;BME280;50813;52.654;6.766;2023-04-02T01:42:37;101428.0;;;4.28;91.17
64453;BME280;50813;52.654;6.766;2023-04-02T01:46:05;101430.0;;;4.28;91.9
64453;BME280;50813;52.654;6.766;2023-04-02T01:48:00;101441.0;;;4.21;90.86
64453;BME280;50813;52.654;6.766;2023-04-02T01:49:38;101438.0;;;4.2;90.3
64453;BME280;50813;52.654;6.766;2023-04-02T01:51:26;101451.0;;;4.05;88.88
64453;BME280;50813;52.654;6.766;2023-04-02T01:53:06;101455.0;;;4.12;90.48
64453;BME280;50813;52.654;6.766;2023-04-02T01:56:22;101455.0;;;4.07;89.6
64453;BME280;50813;52.654;6.766;2023-04-02T01:58:00;101463.0;;;4.07;90.37
64453;BME280;50813;52.654;6.766;2023-04-02T01:59:37;101469.0;;;4.03;90.25
64453;BME280;50813;52.654;6.766;2023-04-02T02:01:14;101469.0;;;4.04;90.1
64453;BME280;50813;52.654;6.766;2023-04-02T02:04:31;101475.0;;;3.91;90.93
64453;BME280;50813;52.654;6.766;2023-04-02T02:06:10;101475.0;;;3.97;90.73
64453;BME280;50813;52.654;6.766;2023-04-02T02:07:50;101481.0;;;3.89;89.01
64453;BME280;50813;52.654;6.766;2023-04-02T02:11:12;101480.0;;;3.81;89.0
64453;BME280;50813;52.654;6.766;2023-04-02T02:12:49;101489.0;;;3.82;89.46
64453;BME280;50813;52.654;6.766;2023-04-02T02:14:28;101493.0;;;3.74;88.22
64453;BME280;50813;52.654;6.766;2023-04-02T02:16:05;101495.0;;;3.69;88.45
64453;BME280;50813;52.654;6.766;2023-04-02T02:19:35;101505.0;;;3.65;88.52
64453;BME280;50813;52.654;6.766;2023-04-02T02:21:20;101503.0;;;3.61;88.94
64453;BME280;50813;52.654;6.766;2023-04-02T02:23:04;101511.0;;;3.61;89.03
64453;BME280;50813;52.654;6.766;2023-04-02T02:24:40;101512.0;;;3.49;88.86
64453;BME280;50813;52.654;6.766;2023-04-02T02:26:18;101517.0;;;3.45;89.19
64453;BME280;50813;52.654;6.766;2023-04-02T02:29:39;101519.0;;;3.57;90.02
64453;BME280;50813;52.654;6.766;2023-04-02T02:31:22;101525.0;;;3.44;89.28
64453;BME280;50813;52.654;6.766;2023-04-02T02:33:04;101525.0;;;3.4;89.4
64453;BME280;50813;52.654;6.766;2023-04-02T02:34:45;101527.0;;;3.39;89.9
64453;BME280;50813;52.654;6.766;2023-04-02T02:38:26;101541.0;;;3.33;89.28
64453;BME280;50813;52.654;6.766;2023-04-02T02:40:53;101539.0;;;3.31;88.99
64453;BME280;50813;52.654;6.766;2023-04-02T02:44:17;101547.0;;;3.19;89.04
64453;BME280;50813;52.654;6.766;2023-04-02T02:45:56;101542.0;;;3.23;89.25
64453;BME280;50813;52.654;6.766;2023-04-02T02:47:35;101550.0;;;3.14;88.68
64453;BME280;50813;52.654;6.766;2023-04-02T02:49:15;101556.0;;;3.05;89.13
64453;BME280;50813;52.654;6.766;2023-04-02T02:52:35;101561.0;;;2.95;88.86
64453;BME280;50813;52.654;6.766;2023-04-02T02:54:12;101561.0;;;2.92;88.46
64453;BME280;50813;52.654;6.766;2023-04-02T02:55:53;101574.0;;;2.83;89.22
64453;BME280;50813;52.654;6.766;2023-04-02T02:59:16;101577.0;;;2.75;89.5
64453;BME280;50813;52.654;6.766;2023-04-02T03:00:54;101581.0;;;2.66;91.23
64453;BME280;50813;52.654;6.766;2023-04-02T03:02:34;101592.0;;;2.74;91.36
64453;BME280;50813;52.654;6.766;2023-04-02T03:04:11;101590.0;;;2.67;91.15
64453;BME280;50813;52.654;6.766;2023-04-02T03:07:27;101593.0;;;2.73;91.89
64453;BME280;50813;52.654;6.766;2023-04-02T03:09:12;101605.0;;;2.66;92.04
64453;BME280;50813;52.654;6.766;2023-04-02T03:10:55;101603.0;;;2.64;91.33
64453;BME280;50813;52.654;6.766;2023-04-02T03:12:41;101610.0;;;2.67;90.51
64453;BME280;50813;52.654;6.766;2023-04-02T03:14:25;101615.0;;;2.78;91.03
64453;BME280;50813;52.654;6.766;2023-04-02T03:17:51;101623.0;;;2.7;91.17
64453;BME280;50813;52.654;6.766;2023-04-02T03:19:36;101621.0;;;2.66;90.61
64453;BME280;50813;52.654;6.766;2023-04-02T03:21:24;101622.0;;;2.56;90.66
64453;BME280;50813;52.654;6.766;2023-04-02T03:23:11;101622.0;;;2.5;91.42
64453;BME280;50813;52.654;6.766;2023-04-02T03:24:56;101625.0;;;2.46;91.03
64453;BME280;50813;52.654;6.766;2023-04-02T03:28:21;101622.0;;;2.44;90.62
64453;BME280;50813;52.654;6.766;2023-04-02T03:30:08;101636.0;;;2.42;90.9
64453;BME280;50813;52.654;6.766;2023-04-02T03:32:04;101647.0;;;2.29;91.12
64453;BME280;50813;52.654;6.766;2023-04-02T03:33:44;101642.0;;;2.27;91.45
64453;BME280;50813;52.654;6.766;2023-04-02T03:35:30;101647.0;;;2.11;91.89
64453;BME280;50813;52.654;6.766;2023-04-02T03:38:55;101650.0;;;2.11;92.13
64453;BME280;50813;52.654;6.766;2023-04-02T03:40:38;101656.0;;;2.05;91.88
64453;BME280;50813;52.654;6.766;2023-04-02T03:42:20;101659.0;;;2.04;91.82
64453;BME280;50813;52.654;6.766;2023-04-02T03:43:59;101662.0;;;2.07;92.5
64453;BME280;50813;52.654;6.766;2023-04-02T03:47:28;101671.0;;;2.07;92.12
64453;BME280;50813;52.654;6.766;2023-04-02T03:49:12;101672.0;;;2.02;92.07
64453;BME280;50813;52.654;6.766;2023-04-02T03:50:57;101683.0;;;1.98;92.52
64453;BME280;50813;52.654;6.766;2023-04-02T03:52:36;101690.0;;;1.92;92.81
64453;BME280;50813;52.654;6.766;2023-04-02T03:54:14;101685.0;;;1.93;92.47
64453;BME280;50813;52.654;6.766;2023-04-02T03:57:35;101697.0;;;1.88;92.21
64453;BME280;50813;52.654;6.766;2023-04-02T03:59:18;101697.0;;;1.92;92.57
64453;BME280;50813;52.654;6.766;2023-04-02T04:01:05;101700.0;;;2.0;92.42
64453;BME280;50813;52.654;6.766;2023-04-02T04:02:49;101711.0;;;2.06;92.79
64453;BME280;50813;52.654;6.766;2023-04-02T04:06:08;101705.0;;;1.94;92.37
64453;BME280;50813;52.654;6.766;2023-04-02T04:07:46;101708.0;;;2.08;92.51
64453;BME280;50813;52.654;6.766;2023-04-02T04:09:29;101713.0;;;1.94;93.07
64453;BME280;50813;52.654;6.766;2023-04-02T04:11:11;101722.0;;;1.91;92.79
64453;BME280;50813;52.654;6.766;2023-04-02T04:14:31;101731.0;;;1.97;91.85
64453;BME280;50813;52.654;6.766;2023-04-02T04:16:13;101734.0;;;1.96;91.77
64453;BME280;50813;52.654;6.766;2023-04-02T04:17:54;101736.0;;;1.95;91.51
64453;BME280;50813;52.654;6.766;2023-04-02T04:19:40;101746.0;;;2.02;91.49
64453;BME280;50813;52.654;6.766;2023-04-02T04:21:21;101755.0;;;2.08;91.0
64453;BME280;50813;52.654;6.766;2023-04-02T04:24:46;101759.0;;;2.0;90.88
64453;BME280;50813;52.654;6.766;2023-04-02T04:26:27;101766.0;;;2.02;90.3
64453;BME280;50813;52.654;6.766;2023-04-02T04:28:14;101741.0;;;1.99;90.01
64453;BME280;50813;52.654;6.766;2023-04-02T04:29:59;101769.0;;;1.96;89.85
64453;BME280;50813;52.654;6.766;2023-04-02T04:33:24;101778.0;;;1.92;89.81
64453;BME280;50813;52.654;6.766;2023-04-02T04:35:05;101773.0;;;1.93;89.76
64453;BME280;50813;52.654;6.766;2023-04-02T04:36:44;101785.0;;;1.98;89.97
64453;BME280;50813;52.654;6.766;2023-04-02T04:38:29;101785.0;;;2.02;89.76
64453;BME280;50813;52.654;6.766;2023-04-02T04:40:10;101790.0;;;2.04;90.26
64453;BME280;50813;52.654;6.766;2023-04-02T04:43:41;101794.0;;;2.06;88.91
64453;BME280;50813;52.654;6.766;2023-04-02T04:45:32;101796.0;;;2.02;89.12
64453;BME280;50813;52.654;6.766;2023-04-02T04:47:16;101805.0;;;2.14;88.95
64453;BME280;50813;52.654;6.766;2023-04-02T04:48:59;101807.0;;;2.04;89.09
64453;BME280;50813;52.654;6.766;2023-04-02T04:50:40;101813.0;;;2.05;88.41
64453;BME280;50813;52.654;6.766;2023-04-02T04:54:01;101820.0;;;1.94;88.79
64453;BME280;50813;52.654;6.766;2023-04-02T04:55:40;101827.0;;;1.98;88.26
64453;BME280;50813;52.654;6.766;2023-04-02T04:57:26;101831.0;;;1.95;87.91
64453;BME280;50813;52.654;6.766;2023-04-02T04:59:13;101836.0;;;1.84;87.87
64453;BME280;50813;52.654;6.766;2023-04-02T05:02:40;101838.0;;;1.86;88.31
64453;BME280;50813;52.654;6.766;2023-04-02T05:04:24;101848.0;;;1.99;88.36
64453;BME280;50813;52.654;6.766;2023-04-02T05:06:08;101850.0;;;2.04;88.77
64453;BME280;50813;52.654;6.766;2023-04-02T05:07:49;101857.0;;;1.97;87.97
64453;BME280;50813;52.654;6.766;2023-04-02T05:09:31;101860.0;;;1.95;88.44
64453;BME280;50813;52.654;6.766;2023-04-02T05:12:59;101862.0;;;1.99;88.89
64453;BME280;50813;52.654;6.766;2023-04-02T05:14:42;101868.0;;;2.07;88.3
64453;BME280;50813;52.654;6.766;2023-04-02T05:16:27;101867.0;;;2.09;88.11
64453;BME280;50813;52.654;6.766;2023-04-02T05:18:16;101874.0;;;2.07;86.71
64453;BME280;50813;52.654;6.766;2023-04-02T05:19:59;101889.0;;;2.04;86.86
64453;BME280;50813;52.654;6.766;2023-04-02T05:23:23;101886.0;;;1.95;86.32
64453;BME280;50813;52.654;6.766;2023-04-02T05:25:13;101883.0;;;2.02;86.17
64453;BME280;50813;52.654;6.766;2023-04-02T05:26:56;101893.0;;;1.89;85.58
64453;BME280;50813;52.654;6.766;2023-04-02T05:28:41;101901.0;;;1.72;87.42
64453;BME280;50813;52.654;6.766;2023-04-02T05:30:43;101902.0;;;1.69;87.23
64453;BME280;50813;52.654;6.766;2023-04-02T05:32:34;101909.0;;;1.74;86.74
64453;BME280;50813;52.654;6.766;2023-04-02T05:36:03;101910.0;;;1.68;86.46
64453;BME280;50813;52.654;6.766;2023-04-02T05:37:41;101916.0;;;1.76;86.54
64453;BME280;50813;52.654;6.766;2023-04-02T05:39:21;101922.0;;;1.81;86.33
64453;BME280;50813;52.654;6.766;2023-04-02T05:41:00;101928.0;;;1.77;86.54
64453;BME280;50813;52.654;6.766;2023-04-02T05:44:21;101928.0;;;1.86;86.14
64453;BME280;50813;52.654;6.766;2023-04-02T05:46:05;101930.0;;;2.02;86.55
64453;BME280;50813;52.654;6.766;2023-04-02T05:47:52;101930.0;;;1.94;86.07
64453;BME280;50813;52.654;6.766;2023-04-02T05:49:33;101936.0;;;1.86;85.5
64453;BME280;50813;52.654;6.766;2023-04-02T05:51:19;101940.0;;;1.8;85.81
64453;BME280;50813;52.654;6.766;2023-04-02T05:54:45;101948.0;;;1.88;86.92
64453;BME280;50813;52.654;6.766;2023-04-02T05:56:27;101944.0;;;1.83;86.96
64453;BME280;50813;52.654;6.766;2023-04-02T05:58:06;101955.0;;;1.98;85.85
64453;BME280;50813;52.654;6.766;2023-04-02T05:59:53;101959.0;;;1.83;84.73
64453;BME280;50813;52.654;6.766;2023-04-02T06:03:19;101968.0;;;1.93;84.93
64453;BME280;50813;52.654;6.766;2023-04-02T06:05:03;101975.0;;;1.84;85.97
64453;BME280;50813;52.654;6.766;2023-04-02T06:06:45;101981.0;;;1.9;86.11
64453;BME280;50813;52.654;6.766;2023-04-02T06:08:25;101987.0;;;2.07;85.83
64453;BME280;50813;52.654;6.766;2023-04-02T06:10:09;101993.0;;;2.13;85.91
64453;BME280;50813;52.654;6.766;2023-04-02T06:13:32;101995.0;;;2.21;85.55
64453;BME280;50813;52.654;6.766;2023-04-02T06:15:11;101997.0;;;2.12;84.69
64453;BME280;50813;52.654;6.766;2023-04-02T06:16:49;102008.0;;;2.04;84.3
64453;BME280;50813;52.654;6.766;2023-04-02T06:18:27;102008.0;;;2.07;84.41
64453;BME280;50813;52.654;6.766;2023-04-02T06:21:43;102017.0;;;2.12;84.38
64453;BME280;50813;52.654;6.766;2023-04-02T06:23:24;102020.0;;;2.12;84.79
64453;BME280;50813;52.654;6.766;2023-04-02T06:25:08;102028.0;;;2.13;84.29
64453;BME280;50813;52.654;6.766;2023-04-02T06:26:52;102034.0;;;2.12;83.63
64453;BME280;50813;52.654;6.766;2023-04-02T06:30:17;102034.0;;;2.36;84.45
64453;BME280;50813;52.654;6.766;2023-04-02T06:31:58;102046.0;;;2.38;83.65
64453;BME280;50813;52.654;6.766;2023-04-02T06:33:36;102052.0;;;2.29;83.03
64453;BME280;50813;52.654;6.766;2023-04-02T06:35:13;102051.0;;;2.31;84.4
64453;BME280;50813;52.654;6.766;2023-04-02T06:38:33;102069.0;;;2.44;84.24
64453;BME280;50813;52.654;6.766;2023-04-02T06:40:26;102060.0;;;2.4;83.03
64453;BME280;50813;52.654;6.766;2023-04-02T06:42:14;102080.0;;;2.29;82.8
64453;BME280;50813;52.654;6.766;2023-04-02T06:43:56;102077.0;;;2.25;82.35
64453;BME280;50813;52.654;6.766;2023-04-02T06:47:23;102086.0;;;2.25;82.5
64453;BME280;50813;52.654;6.766;2023-04-02T06:49:13;102090.0;;;2.23;82.37
64453;BME280;50813;52.654;6.766;2023-04-02T06:50:55;102092.0;;;2.41;82.56
64453;BME280;50813;52.654;6.766;2023-04-02T06:52:36;102099.0;;;2.46;83.31
64453;BME280;50813;52.654;6.766;2023-04-02T06:54:19;102099.0;;;2.48;82.98
64453;BME280;50813;52.654;6.766;2023-04-02T06:57:39;102096.0;;;2.5;83.08
64453;BME280;50813;52.654;6.766;2023-04-02T06:59:16;102099.0;;;2.46;81.73
64453;BME280;50813;52.654;6.766;2023-04-02T07:00:53;102099.0;;;2.36;81.34
64453;BME280;50813;52.654;6.766;2023-04-02T07:02:34;102097.0;;;2.37;81.7
64453;BME280;50813;52.654;6.766;2023-04-02T07:05:50;102108.0;;;2.56;82.26
64453;BME280;50813;52.654;6.766;2023-04-02T07:07:27;102117.0;;;2.63;81.11
64453;BME280;50813;52.654;6.766;2023-04-02T07:09:04;102115.0;;;2.68;80.52
64453;BME280;50813;52.654;6.766;2023-04-02T07:12:22;102119.0;;;2.71;79.97
64453;BME280;50813;52.654;6.766;2023-04-02T07:13:59;102126.0;;;2.65;80.02
64453;BME280;50813;52.654;6.766;2023-04-02T07:15:35;102121.0;;;2.73;79.97
64453;BME280;50813;52.654;6.766;2023-04-02T07:17:14;102126.0;;;2.69;79.61
64453;BME280;50813;52.654;6.766;2023-04-02T07:20:31;102132.0;;;2.76;81.66
64453;BME280;50813;52.654;6.766;2023-04-02T07:22:09;102139.0;;;2.7;80.06
64453;BME280;50813;52.654;6.766;2023-04-02T07:23:45;102136.0;;;2.6;80.62
64453;BME280;50813;52.654;6.766;2023-04-02T07:26:58;102137.0;;;2.58;80.25
64453;BME280;50813;52.654;6.766;2023-04-02T07:28:34;102141.0;;;2.5;80.61
64453;BME280;50813;52.654;6.766;2023-04-02T07:30:11;102142.0;;;2.56;81.02
64453;BME280;50813;52.654;6.766;2023-04-02T07:31:47;102143.0;;;2.52;80.5
64453;BME280;50813;52.654;6.766;2023-04-02T07:35:06;102146.0;;;2.5;81.47
64453;BME280;50813;52.654;6.766;2023-04-02T07:36:42;102146.0;;;2.56;80.44
64453;BME280;50813;52.654;6.766;2023-04-02T07:38:18;102153.0;;;2.67;80.22
64453;BME280;50813;52.654;6.766;2023-04-02T07:43:08;102160.0;;;2.65;80.02
64453;BME280;50813;52.654;6.766;2023-04-02T07:44:45;102155.0;;;2.64;79.69
64453;BME280;50813;52.654;6.766;2023-04-02T07:46:21;102167.0;;;2.64;80.59
64453;BME280;50813;52.654;6.766;2023-04-02T07:49:40;102171.0;;;2.67;80.61
64453;BME280;50813;52.654;6.766;2023-04-02T07:51:18;102174.0;;;2.65;80.69
64453;BME280;50813;52.654;6.766;2023-04-02T07:52:55;102178.0;;;2.69;80.42
64453;BME280;50813;52.654;6.766;2023-04-02T07:56:12;102173.0;;;2.74;79.7
64453;BME280;50813;52.654;6.766;2023-04-02T07:57:51;102181.0;;;2.84;79.67
64453;BME280;50813;52.654;6.766;2023-04-02T07:59:28;102193.0;;;3.02;80.27
64453;BME280;50813;52.654;6.766;2023-04-02T08:01:14;102193.0;;;3.01;79.53
64453;BME280;50813;52.654;6.766;2023-04-02T08:04:29;102193.0;;;3.18;79.77
64453;BME280;50813;52.654;6.766;2023-04-02T08:06:06;102200.0;;;3.06;79.3
64453;BME280;50813;52.654;6.766;2023-04-02T08:07:43;102193.0;;;3.08;79.31
64453;BME280;50813;52.654;6.766;2023-04-02T08:09:20;102202.0;;;2.99;80.02
64453;BME280;50813;52.654;6.766;2023-04-02T08:12:32;102200.0;;;2.98;80.45
64453;BME280;50813;52.654;6.766;2023-04-02T08:14:08;102202.0;;;2.9;80.52
64453;BME280;50813;52.654;6.766;2023-04-02T08:15:45;102205.0;;;2.88;79.64
64453;BME280;50813;52.654;6.766;2023-04-02T08:18:59;102203.0;;;3.11;79.44
64453;BME280;50813;52.654;6.766;2023-04-02T08:20:35;102206.0;;;3.39;78.89
64453;BME280;50813;52.654;6.766;2023-04-02T08:22:12;102220.0;;;3.66;78.23
64453;BME280;50813;52.654;6.766;2023-04-02T08:25:26;102215.0;;;3.52;76.8
64453;BME280;50813;52.654;6.766;2023-04-02T08:27:03;102221.0;;;3.54;78.08
64453;BME280;50813;52.654;6.766;2023-04-02T08:28:40;102233.0;;;3.64;77.3
64453;BME280;50813;52.654;6.766;2023-04-02T08:30:17;102236.0;;;3.88;77.37
64453;BME280;50813;52.654;6.766;2023-04-02T08:33:30;102238.0;;;4.03;76.27
64453;BME280;50813;52.654;6.766;2023-04-02T08:35:08;102239.0;;;4.12;76.11
64453;BME280;50813;52.654;6.766;2023-04-02T08:36:45;102242.0;;;4.45;76.19
64453;BME280;50813;52.654;6.766;2023-04-02T08:39:57;102246.0;;;4.53;74.41
64453;BME280;50813;52.654;6.766;2023-04-02T08:41:35;102257.0;;;4.79;74.72
64453;BME280;50813;52.654;6.766;2023-04-02T08:43:24;102248.0;;;4.64;73.0
64453;BME280;50813;52.654;6.766;2023-04-02T08:45:17;102251.0;;;4.57;73.48
64453;BME280;50813;52.654;6.766;2023-04-02T08:48:39;102259.0;;;4.82;73.08
64453;BME280;50813;52.654;6.766;2023-04-02T08:50:25;102259.0;;;5.03;74.05
64453;BME280;50813;52.654;6.766;2023-04-02T08:52:18;102257.0;;;5.4;73.39
64453;BME280;50813;52.654;6.766;2023-04-02T08:54:00;102260.0;;;5.43;70.61
64453;BME280;50813;52.654;6.766;2023-04-02T08:55:41;102260.0;;;5.09;69.44
64453;BME280;50813;52.654;6.766;2023-04-02T08:59:20;102268.0;;;5.07;69.58
64453;BME280;50813;52.654;6.766;2023-04-02T09:01:01;102275.0;;;4.89;69.0
64453;BME280;50813;52.654;6.766;2023-04-02T09:02:40;102282.0;;;4.99;70.22
64453;BME280;50813;52.654;6.766;2023-04-02T09:04:23;102280.0;;;4.95;70.61
64453;BME280;50813;52.654;6.766;2023-04-02T09:06:01;102287.0;;;4.93;71.62
64453;BME280;50813;52.654;6.766;2023-04-02T09:09:16;102288.0;;;5.03;70.52
64453;BME280;50813;52.654;6.766;2023-04-02T09:10:58;102289.0;;;5.17;70.69
64453;BME280;50813;52.654;6.766;2023-04-02T09:12:39;102284.0;;;5.2;71.22
64453;BME280;50813;52.654;6.766;2023-04-02T09:14:19;102292.0;;;5.46;71.37
64453;BME280;50813;52.654;6.766;2023-04-02T09:17:43;102301.0;;;5.6;70.53
64453;BME280;50813;52.654;6.766;2023-04-02T09:19:22;102295.0;;;5.55;69.38
64453;BME280;50813;52.654;6.766;2023-04-02T09:21:01;102295.0;;;6.05;71.97
64453;BME280;50813;52.654;6.766;2023-04-02T09:22:49;102302.0;;;6.17;70.97
64453;BME280;50813;52.654;6.766;2023-04-02T09:26:18;102305.0;;;6.33;71.77
64453;BME280;50813;52.654;6.766;2023-04-02T09:28:00;102319.0;;;6.45;70.12
64453;BME280;50813;52.654;6.766;2023-04-02T09:29:40;102319.0;;;6.37;70.5
64453;BME280;50813;52.654;6.766;2023-04-02T09:31:21;102326.0;;;6.43;69.27
64453;BME280;50813;52.654;6.766;2023-04-02T09:33:03;102328.0;;;6.33;69.66
64453;BME280;50813;52.654;6.766;2023-04-02T09:36:25;102333.0;;;6.29;69.2
64453;BME280;50813;52.654;6.766;2023-04-02T09:38:21;102342.0;;;5.85;70.62
64453;BME280;50813;52.654;6.766;2023-04-02T09:40:14;102342.0;;;5.78;71.92
64453;BME280;50813;52.654;6.766;2023-04-02T09:42:06;102355.0;;;5.86;71.97
64453;BME280;50813;52.654;6.766;2023-04-02T09:43:43;102351.0;;;5.73;71.52
64453;BME280;50813;52.654;6.766;2023-04-02T09:47:00;102347.0;;;5.83;70.83
64453;BME280;50813;52.654;6.766;2023-04-02T09:48:40;102350.0;;;5.95;70.37
64453;BME280;50813;52.654;6.766;2023-04-02T09:50:24;102355.0;;;6.19;71.16
64453;BME280;50813;52.654;6.766;2023-04-02T09:52:16;102349.0;;;6.46;68.02
64453;BME280;50813;52.654;6.766;2023-04-02T09:54:13;102352.0;;;6.36;68.8
64453;BME280;50813;52.654;6.766;2023-04-02T09:57:45;102355.0;;;6.41;67.73
64453;BME280;50813;52.654;6.766;2023-04-02T09:59:22;102356.0;;;6.29;67.81
64453;BME280;50813;52.654;6.766;2023-04-02T10:00:59;102353.0;;;6.28;67.89
64453;BME280;50813;52.654;6.766;2023-04-02T10:02:36;102355.0;;;6.3;67.66
64453;BME280;50813;52.654;6.766;2023-04-02T10:06:14;102353.0;;;6.55;67.87
64453;BME280;50813;52.654;6.766;2023-04-02T10:07:52;102361.0;;;6.61;67.41
64453;BME280;50813;52.654;6.766;2023-04-02T10:09:31;102366.0;;;6.49;66.47
64453;BME280;50813;52.654;6.766;2023-04-02T10:11:11;102362.0;;;6.45;65.91
64453;BME280;50813;52.654;6.766;2023-04-02T10:12:53;102366.0;;;6.79;67.98
64453;BME280;50813;52.654;6.766;2023-04-02T10:16:18;102372.0;;;7.02;68.31
64453;BME280;50813;52.654;6.766;2023-04-02T10:18:04;102376.0;;;6.97;67.73
64453;BME280;50813;52.654;6.766;2023-04-02T10:19:47;102378.0;;;6.99;68.64
64453;BME280;50813;52.654;6.766;2023-04-02T10:21:28;102375.0;;;6.88;65.91
64453;BME280;50813;52.654;6.766;2023-04-02T10:24:50;102384.0;;;6.89;67.8
64453;BME280;50813;52.654;6.766;2023-04-02T10:26:37;102386.0;;;7.01;66.85
64453;BME280;50813;52.654;6.766;2023-04-02T10:28:41;102381.0;;;6.95;67.05
64453;BME280;50813;52.654;6.766;2023-04-02T10:30:29;102389.0;;;7.46;67.08
64453;BME280;50813;52.654;6.766;2023-04-02T10:32:23;102396.0;;;7.17;66.38
64453;BME280;50813;52.654;6.766;2023-04-02T10:34:10;102399.0;;;7.22;66.23
64453;BME280;50813;52.654;6.766;2023-04-02T10:35:55;102385.0;;;7.49;65.47
64453;BME280;50813;52.654;6.766;2023-04-02T10:40:26;102393.0;;;7.73;64.31
64453;BME280;50813;52.654;6.766;2023-04-02T10:42:09;102394.0;;;8.0;65.08
64453;BME280;50813;52.654;6.766;2023-04-02T10:45:59;102393.0;;;8.14;65.49
64453;BME280;50813;52.654;6.766;2023-04-02T10:47:45;102386.0;;;8.24;65.47
64453;BME280;50813;52.654;6.766;2023-04-02T10:49:31;102403.0;;;8.22;63.95
64453;BME280;50813;52.654;6.766;2023-04-02T10:51:28;102408.99999999999;;;8.15;63.6
64453;BME280;50813;52.654;6.766;2023-04-02T10:53:12;102409.99999999999;;;8.06;61.5
64453;BME280;50813;52.654;6.766;2023-04-02T10:54:52;102415.00000000001;;;8.06;63.4
64453;BME280;50813;52.654;6.766;2023-04-02T10:58:17;102420.0;;;8.15;62.75
64453;BME280;50813;52.654;6.766;2023-04-02T11:00:04;102420.0;;;8.4;60.86
64453;BME280;50813;52.654;6.766;2023-04-02T11:01:45;102426.0;;;8.59;61.05
64453;BME280;50813;52.654;6.766;2023-04-02T11:03:30;102439.00000000001;;;8.69;59.54
64453;BME280;50813;52.654;6.766;2023-04-02T11:05:17;102432.0;;;8.73;59.51
64453;BME280;50813;52.654;6.766;2023-04-02T11:08:39;102433.0;;;8.88;60.07
64453;BME280;50813;52.654;6.766;2023-04-02T11:10:19;102433.99999999999;;;9.05;61.34
64453;BME280;50813;52.654;6.766;2023-04-02T11:11:58;102439.00000000001;;;8.91;59.64
64453;BME280;50813;52.654;6.766;2023-04-02T11:13:46;102436.99999999999;;;8.63;59.64
64453;BME280;50813;52.654;6.766;2023-04-02T11:17:04;102440.00000000001;;;8.91;58.79
64453;BME280;50813;52.654;6.766;2023-04-02T11:18:40;102438.00000000001;;;8.81;59.27
64453;BME280;50813;52.654;6.766;2023-04-02T11:20:59;102433.99999999999;;;8.97;58.46
64453;BME280;50813;52.654;6.766;2023-04-02T11:22:39;102442.0;;;8.73;56.99
64453;BME280;50813;52.654;6.766;2023-04-02T11:24:25;102442.0;;;8.8;56.47